Shallmar, Maryland
Current Conditions -  °F | °C
As of 11:45 PM on Monday 20 Oct 2014 (Local Time) from K2G4 Reporting Station
Overcast Overcast  
Wind Chill: 43°   Ceiling: 3200
Heat Index: 46°   Visibility: 10mi
Dew Point: 45°   Wind: 7mph
Humidity: 93%   Direction: 240°WSW
Pressure: 29.91"   Gusts: NA
Location:  39.4013°N, 79.2213°W
Report Text: K2G4 210345Z AUTO 24006KT 10SM SCT019 BKN032 OVC044 08/07 A2991 RMK AO1
Loading
Personal Weather Stations






























Interactive Weather Map
Tropical Storm Tracking
New forecast layout! Learn more

10-Day Weather Forecast

Advertisements
Track Severe Weather on mobile